Time;durP1;ratioP1;P1;durP2;ratioP2;P2;SDS_P1;SDS_P2;PMS_P1;PMS_P2;Temp;Humidity;BMP_temperature;BMP_pressure;BME280_temperature;BME280_humidity;BME280_pressure;Samples;Min_cycle;Max_cycle;Signal;HPM_P1;HPM_P2
2022/12/21 00:01:20;;;;;;;14.30;2.03;;;;;;;;;;4995916;28;20080;-66
2022/12/21 00:03:46;;;;;;;24.92;2.33;;;;;;;;;;4997069;28;20076;-61
2022/12/21 00:06:13;;;;;;;13.10;2.38;;;;;;;;;;4993978;28;20058;-63
2022/12/21 00:08:43;;;;;;;10.77;2.40;;;;;;;;;;4997682;28;20634;-62
2022/12/21 00:11:10;;;;;;;9.18;1.85;;;;;;;;;;5000014;28;20061;-64
2022/12/21 00:13:36;;;;;;;8.95;1.70;;;;;;;;;;4998995;28;20556;-61
2022/12/21 00:16:06;;;;;;;17.30;2.15;;;;;;;;;;5001820;28;20050;-62
2022/12/21 00:18:33;;;;;;;8.98;1.73;;;;;;;;;;4999137;28;20050;-64
2022/12/21 00:21:02;;;;;;;16.65;2.10;;;;;;;;;;5000763;28;20053;-62
2022/12/21 00:23:29;;;;;;;8.85;1.63;;;;;;;;;;4985279;28;20143;-62
2022/12/21 00:25:57;;;;;;;16.42;1.77;;;;;;;;;;4997916;28;20054;-63
2022/12/21 00:28:23;;;;;;;9.85;2.15;;;;;;;;;;5002017;28;20528;-64
2022/12/21 00:30:49;;;;;;;11.60;1.85;;;;;;;;;;4997359;28;20057;-62
2022/12/21 00:33:14;;;;;;;11.70;1.95;;;;;;;;;;4996857;28;20042;-62
2022/12/21 00:35:46;;;;;;;12.77;2.15;;;;;;;;;;5003108;28;20401;-63
2022/12/21 00:38:12;;;;;;;10.10;1.80;;;;;;;;;;5003916;28;20065;-63
2022/12/21 00:40:38;;;;;;;14.38;2.33;;;;;;;;;;5001139;28;20056;-63
2022/12/21 00:43:04;;;;;;;11.05;2.05;;;;;;;;;;4998926;28;20054;-64
2022/12/21 00:45:30;;;;;;;11.30;2.65;;;;;;;;;;5000857;28;20053;-64
2022/12/21 00:47:56;;;;;;;7.80;1.90;;;;;;;;;;4999915;28;20046;-61
2022/12/21 00:50:23;;;;;;;10.48;1.80;;;;;;;;;;5002099;28;20049;-65
2022/12/21 00:52:49;;;;;;;13.40;2.25;;;;;;;;;;5005804;28;20058;-66
2022/12/21 00:55:15;;;;;;;13.60;2.15;;;;;;;;;;4999953;28;20053;-64
2022/12/21 00:57:40;;;;;;;13.60;1.95;;;;;;;;;;4998809;28;20057;-64
2022/12/21 01:00:09;;;;;;;10.68;1.63;;;;;;;;;;5007288;28;20060;-60
2022/12/21 01:02:35;;;;;;;15.98;2.60;;;;;;;;;;4999793;28;20979;-62
2022/12/21 01:05:02;;;;;;;22.58;2.78;;;;;;;;;;5003452;28;20057;-61
2022/12/21 01:07:28;;;;;;;7.68;1.90;;;;;;;;;;5001182;28;20394;-63
2022/12/21 01:09:54;;;;;;;9.27;1.67;;;;;;;;;;4980450;28;20049;-64
2022/12/21 01:12:20;;;;;;;9.40;2.00;;;;;;;;;;5002942;28;20492;-61
2022/12/21 01:14:46;;;;;;;16.33;2.53;;;;;;;;;;4998942;28;20050;-62
2022/12/21 01:17:12;;;;;;;8.20;1.88;;;;;;;;;;4992566;28;20052;-61
2022/12/21 01:19:38;;;;;;;8.20;2.75;;;;;;;;;;5002623;28;20530;-61
2022/12/21 01:22:03;;;;;;;12.75;2.03;;;;;;;;;;5004533;28;20064;-62
2022/12/21 01:24:29;;;;;;;13.30;2.42;;;;;;;;;;5005812;28;20046;-62
2022/12/21 01:26:55;;;;;;;8.00;1.92;;;;;;;;;;4987524;28;20060;-63
2022/12/21 01:29:21;;;;;;;13.75;1.92;;;;;;;;;;4982482;28;20046;-61
2022/12/21 01:31:47;;;;;;;16.42;2.25;;;;;;;;;;4997299;28;20064;-61
2022/12/21 01:34:13;;;;;;;8.25;1.52;;;;;;;;;;5000859;28;20046;-61
2022/12/21 01:36:39;;;;;;;12.77;2.30;;;;;;;;;;4998417;28;20052;-61
2022/12/21 01:39:05;;;;;;;16.50;2.70;;;;;;;;;;4998145;28;20061;-60
2022/12/21 01:41:31;;;;;;;14.85;1.92;;;;;;;;;;5003962;28;20050;-60
2022/12/21 01:44:01;;;;;;;9.10;2.30;;;;;;;;;;4997891;28;20061;-65
2022/12/21 01:46:47;;;;;;;8.48;1.90;;;;;;;;;;4998308;28;20042;-60
2022/12/21 01:49:22;;;;;;;11.50;2.28;;;;;;;;;;4997294;28;20057;-61
2022/12/21 01:51:52;;;;;;;7.97;2.17;;;;;;;;;;4999713;28;20042;-60
2022/12/21 01:54:47;;;;;;;7.72;1.77;;;;;;;;;;4988693;28;20605;-61
2022/12/21 01:57:15;;;;;;;12.82;2.67;;;;;;;;;;5006956;28;20107;-61
2022/12/21 01:59:45;;;;;;;11.32;2.03;;;;;;;;;;5001496;28;21076;-61
2022/12/21 02:02:22;;;;;;;14.07;3.00;;;;;;;;;;5002942;28;20053;-61
2022/12/21 02:04:50;;;;;;;7.78;1.67;;;;;;;;;;4999586;28;20425;-62
2022/12/21 02:07:16;;;;;;;12.43;2.13;;;;;;;;;;4995171;28;20706;-63
2022/12/21 02:09:42;;;;;;;25.27;2.50;;;;;;;;;;5003633;28;20050;-62
2022/12/21 02:12:13;;;;;;;16.73;2.90;;;;;;;;;;4984161;28;20124;-62
2022/12/21 02:14:43;;;;;;;13.85;2.10;;;;;;;;;;4996700;28;20045;-60
2022/12/21 02:17:13;;;;;;;14.55;2.22;;;;;;;;;;4997007;28;20050;-60
2022/12/21 02:20:06;;;;;;;11.65;2.65;;;;;;;;;;4994290;28;20054;-64
2022/12/21 02:22:50;;;;;;;10.68;2.15;;;;;;;;;;5000121;28;20080;-64
2022/12/21 02:25:47;;;;;;;11.57;2.63;;;;;;;;;;4996984;28;20062;-65
2022/12/21 02:28:50;;;;;;;9.18;1.90;;;;;;;;;;5001072;28;20334;-61
2022/12/21 02:31:25;;;;;;;11.02;2.58;;;;;;;;;;5001874;28;20148;-60
2022/12/21 02:34:23;;;;;;;10.10;2.22;;;;;;;;;;4996428;28;20357;-71
2022/12/21 02:37:04;;;;;;;7.45;2.10;;;;;;;;;;4985666;28;20050;-62
2022/12/21 02:39:36;;;;;;;7.18;2.05;;;;;;;;;;5005030;28;20401;-62
2022/12/21 02:44:12;;;;;;;9.48;1.95;;;;;;;;;;4999057;28;20121;-65
2022/12/21 02:45:27;;;;;;;9.63;1.70;;;;;;;;;;5002511;28;20127;-60
2022/12/21 02:48:06;;;;;;;12.18;2.42;;;;;;;;;;5002176;28;20089;-62
2022/12/21 02:50:38;;;;;;;12.43;2.15;;;;;;;;;;4990675;28;20129;-59
2022/12/21 02:53:15;;;;;;;7.88;1.60;;;;;;;;;;4993155;28;20555;-62
2022/12/21 02:55:44;;;;;;;7.05;1.65;;;;;;;;;;4998519;28;20433;-62
2022/12/21 02:58:19;;;;;;;8.77;1.98;;;;;;;;;;4998123;28;20473;-70
2022/12/21 03:00:59;;;;;;;8.77;2.50;;;;;;;;;;5004856;28;20077;-61
2022/12/21 03:03:49;;;;;;;9.63;2.47;;;;;;;;;;4993953;28;20103;-63
2022/12/21 03:06:27;;;;;;;7.38;2.10;;;;;;;;;;5002021;28;20048;-64
2022/12/21 03:09:06;;;;;;;6.85;2.10;;;;;;;;;;5006437;28;20096;-62
2022/12/21 03:12:19;;;;;;;6.88;1.70;;;;;;;;;;4998156;28;20045;-60
2022/12/21 03:15:13;;;;;;;8.80;2.10;;;;;;;;;;4942236;28;20047;-62
2022/12/21 03:17:51;;;;;;;9.57;2.13;;;;;;;;;;4940932;29;20125;-62
2022/12/21 03:20:29;;;;;;;9.85;1.90;;;;;;;;;;4935924;28;20538;-64
2022/12/21 03:23:02;;;;;;;8.38;1.92;;;;;;;;;;4940566;28;20146;-61
2022/12/21 03:25:39;;;;;;;13.77;2.45;;;;;;;;;;4941660;28;20416;-61
2022/12/21 03:28:11;;;;;;;11.88;2.75;;;;;;;;;;4938652;29;20091;-61
2022/12/21 03:30:42;;;;;;;7.45;2.00;;;;;;;;;;4937342;28;20051;-60
2022/12/21 03:33:14;;;;;;;9.50;1.98;;;;;;;;;;4944191;28;20075;-61
2022/12/21 03:35:52;;;;;;;4.35;1.60;;;;;;;;;;4945923;28;20568;-61
2022/12/21 03:38:24;;;;;;;8.48;2.13;;;;;;;;;;4931810;28;20468;-61
2022/12/21 03:40:56;;;;;;;10.40;2.20;;;;;;;;;;4937378;28;20047;-60
2022/12/21 03:43:42;;;;;;;6.53;2.13;;;;;;;;;;4934886;28;20091;-61
2022/12/21 03:46:32;;;;;;;6.25;1.67;;;;;;;;;;4984834;28;20088;-60
2022/12/21 03:49:02;;;;;;;6.00;1.75;;;;;;;;;;4987934;28;20058;-59
2022/12/21 03:51:49;;;;;;;5.30;1.63;;;;;;;;;;4996312;28;20046;-62
2022/12/21 03:54:36;;;;;;;6.07;1.77;;;;;;;;;;4977704;28;20053;-59
2022/12/21 03:57:04;;;;;;;6.40;2.28;;;;;;;;;;4994621;28;20058;-60
2022/12/21 03:59:30;;;;;;;7.53;1.98;;;;;;;;;;4989585;28;20120;-62
2022/12/21 04:02:05;;;;;;;5.63;1.33;;;;;;;;;;4998520;28;20088;-61
2022/12/21 04:05:04;;;;;;;7.00;2.00;;;;;;;;;;5000338;28;20080;-61
2022/12/21 04:07:33;;;;;;;8.65;1.80;;;;;;;;;;4999508;28;20049;-63
2022/12/21 04:10:01;;;;;;;9.90;1.70;;;;;;;;;;5001362;28;20053;-64
2022/12/21 04:12:37;;;;;;;5.40;1.70;;;;;;;;;;4988162;28;20050;-61
2022/12/21 04:15:16;;;;;;;7.43;1.83;;;;;;;;;;5001887;28;20046;-64
2022/12/21 04:17:44;;;;;;;10.07;1.80;;;;;;;;;;4993397;28;20410;-61
2022/12/21 04:20:14;;;;;;;12.70;2.10;;;;;;;;;;4997750;28;20105;-61
2022/12/21 04:28:25;;;;;;;11.27;1.90;;;;;;;;;;5005693;28;20479;-61
2022/12/21 04:30:51;;;;;;;8.32;1.80;;;;;;;;;;5006464;28;20128;-61
2022/12/21 04:33:20;;;;;;;11.77;1.88;;;;;;;;;;4986943;28;20061;-61
2022/12/21 04:38:34;;;;;;;5.72;1.50;;;;;;;;;;4998941;28;20053;-61
2022/12/21 04:41:01;;;;;;;3.42;1.40;;;;;;;;;;4997575;28;20057;-61
2022/12/21 04:43:27;;;;;;;6.20;1.65;;;;;;;;;;5003565;28;20064;-60
2022/12/21 04:46:05;;;;;;;3.55;1.55;;;;;;;;;;5007321;28;20740;-63
2022/12/21 04:48:31;;;;;;;4.20;1.50;;;;;;;;;;5005960;28;20365;-61
2022/12/21 04:51:03;;;;;;;5.18;1.80;;;;;;;;;;4999577;28;20057;-60
2022/12/21 04:53:29;;;;;;;10.00;2.00;;;;;;;;;;4999412;28;20058;-60
2022/12/21 04:55:55;;;;;;;6.03;1.88;;;;;;;;;;5004075;28;20053;-63
2022/12/21 04:58:21;;;;;;;7.85;2.08;;;;;;;;;;5006384;28;20148;-63
2022/12/21 05:00:46;;;;;;;4.22;1.42;;;;;;;;;;5006389;28;20267;-62
2022/12/21 05:03:12;;;;;;;5.22;1.38;;;;;;;;;;5004123;28;20064;-60
2022/12/21 05:05:38;;;;;;;5.43;1.48;;;;;;;;;;5005621;28;21185;-61
2022/12/21 05:08:05;;;;;;;6.88;1.50;;;;;;;;;;4982679;28;20060;-61
2022/12/21 05:10:30;;;;;;;3.15;1.40;;;;;;;;;;5003082;28;20034;-58
2022/12/21 05:12:57;;;;;;;3.38;1.63;;;;;;;;;;5000776;28;20101;-64
2022/12/21 05:15:22;;;;;;;9.13;1.80;;;;;;;;;;5002927;28;20061;-61
2022/12/21 05:17:48;;;;;;;5.95;1.38;;;;;;;;;;4996431;28;20052;-61
2022/12/21 05:20:14;;;;;;;3.00;1.23;;;;;;;;;;4992945;28;20054;-60
2022/12/21 05:22:44;;;;;;;4.30;1.50;;;;;;;;;;4999008;28;20050;-66
2022/12/21 05:25:10;;;;;;;3.88;1.38;;;;;;;;;;5001117;28;20563;-62
2022/12/21 05:27:36;;;;;;;9.32;1.65;;;;;;;;;;5000131;28;20050;-60
2022/12/21 05:30:02;;;;;;;7.40;1.38;;;;;;;;;;5001661;28;20147;-62
2022/12/21 05:32:28;;;;;;;3.47;1.15;;;;;;;;;;5007808;28;20046;-64
2022/12/21 05:34:54;;;;;;;5.15;1.10;;;;;;;;;;5004638;28;20112;-62
2022/12/21 05:37:20;;;;;;;5.35;1.40;;;;;;;;;;5002238;28;20049;-60
2022/12/21 05:39:46;;;;;;;2.63;1.30;;;;;;;;;;4996942;28;20054;-61
2022/12/21 05:42:12;;;;;;;4.57;1.30;;;;;;;;;;4997573;28;20047;-61
2022/12/21 05:44:38;;;;;;;7.18;1.40;;;;;;;;;;5000429;28;20416;-66
2022/12/21 05:47:04;;;;;;;6.80;1.42;;;;;;;;;;5001237;28;20046;-61
2022/12/21 05:49:30;;;;;;;7.10;1.48;;;;;;;;;;5000157;28;20049;-70
2022/12/21 05:51:56;;;;;;;3.35;1.17;;;;;;;;;;5006204;28;20054;-61
2022/12/21 05:54:21;;;;;;;5.40;1.77;;;;;;;;;;5001893;28;20073;-60
2022/12/21 05:56:47;;;;;;;3.97;1.42;;;;;;;;;;5003482;28;20058;-62
2022/12/21 05:59:13;;;;;;;8.82;2.10;;;;;;;;;;5002863;28;20056;-60
2022/12/21 06:01:39;;;;;;;4.55;1.23;;;;;;;;;;5000994;28;20548;-62
2022/12/21 06:04:05;;;;;;;3.90;1.20;;;;;;;;;;5004563;28;20096;-61
2022/12/21 06:06:31;;;;;;;2.55;1.35;;;;;;;;;;5001469;28;20101;-62
2022/12/21 06:08:57;;;;;;;5.35;1.50;;;;;;;;;;5000567;28;20578;-62
2022/12/21 06:11:24;;;;;;;3.10;1.20;;;;;;;;;;5002430;28;20046;-62
2022/12/21 06:13:50;;;;;;;7.18;1.23;;;;;;;;;;5000523;28;20403;-62
2022/12/21 06:16:19;;;;;;;4.25;1.35;;;;;;;;;;4993812;28;20484;-60
2022/12/21 06:18:45;;;;;;;3.60;1.05;;;;;;;;;;4996064;28;20553;-63
2022/12/21 06:21:13;;;;;;;2.58;1.23;;;;;;;;;;5000643;28;20523;-61
2022/12/21 06:23:39;;;;;;;5.20;1.25;;;;;;;;;;5000932;28;20057;-62
2022/12/21 06:26:07;;;;;;;4.95;0.90;;;;;;;;;;5000816;28;20054;-61
2022/12/21 06:28:33;;;;;;;2.38;1.00;;;;;;;;;;4998143;28;20062;-61
2022/12/21 06:31:10;;;;;;;4.45;1.17;;;;;;;;;;4996939;28;20124;-61
2022/12/21 06:33:37;;;;;;;3.00;1.10;;;;;;;;;;5001562;28;20054;-60
2022/12/21 06:36:04;;;;;;;6.60;1.10;;;;;;;;;;4993518;28;20050;-63
2022/12/21 06:38:31;;;;;;;6.63;1.20;;;;;;;;;;4994093;28;20933;-62
2022/12/21 06:41:00;;;;;;;5.53;1.15;;;;;;;;;;4989012;28;20073;-64
2022/12/21 06:43:29;;;;;;;3.40;1.10;;;;;;;;;;4985243;28;20054;-63
2022/12/21 06:46:07;;;;;;;1.75;1.05;;;;;;;;;;4992815;28;20046;-63
2022/12/21 06:48:34;;;;;;;3.42;1.10;;;;;;;;;;4993767;28;20509;-65
2022/12/21 06:51:11;;;;;;;2.47;1.20;;;;;;;;;;5001103;28;20088;-62
2022/12/21 06:53:38;;;;;;;3.05;1.30;;;;;;;;;;4998752;28;20112;-63
2022/12/21 06:56:11;;;;;;;3.22;1.40;;;;;;;;;;4994348;28;20050;-62
2022/12/21 06:58:37;;;;;;;7.78;1.98;;;;;;;;;;4992750;28;20066;-61
2022/12/21 07:01:11;;;;;;;4.15;1.30;;;;;;;;;;4996899;28;20041;-63
2022/12/21 07:03:38;;;;;;;2.90;1.37;;;;;;;;;;4972446;28;20065;-63
2022/12/21 07:06:05;;;;;;;4.15;1.55;;;;;;;;;;4992546;28;20395;-63
2022/12/21 07:08:31;;;;;;;4.22;1.25;;;;;;;;;;4996201;28;20084;-63
2022/12/21 07:11:05;;;;;;;5.22;1.65;;;;;;;;;;4996606;28;20050;-63
2022/12/21 07:13:34;;;;;;;2.92;1.33;;;;;;;;;;5000451;28;20056;-65
2022/12/21 07:16:00;;;;;;;5.32;1.50;;;;;;;;;;4978865;28;20580;-65
2022/12/21 07:18:26;;;;;;;3.60;1.33;;;;;;;;;;4998903;28;20060;-66
2022/12/21 07:21:13;;;;;;;2.50;1.20;;;;;;;;;;4999434;28;20068;-63
2022/12/21 07:23:40;;;;;;;9.02;1.40;;;;;;;;;;4978035;28;20050;-65
2022/12/21 07:26:26;;;;;;;9.60;1.55;;;;;;;;;;4999270;28;20552;-65
2022/12/21 07:28:54;;;;;;;2.80;1.10;;;;;;;;;;4979595;28;20046;-66
2022/12/21 07:31:23;;;;;;;3.92;1.30;;;;;;;;;;4994964;28;20100;-65
2022/12/21 07:33:50;;;;;;;4.13;1.35;;;;;;;;;;4983428;28;20050;-67
2022/12/21 07:36:17;;;;;;;5.28;1.70;;;;;;;;;;4986026;28;20062;-65
2022/12/21 07:38:42;;;;;;;4.25;1.50;;;;;;;;;;4986544;28;20115;-65
2022/12/21 07:41:12;;;;;;;4.53;1.02;;;;;;;;;;4979693;28;20060;-63
2022/12/21 07:43:38;;;;;;;5.25;1.35;;;;;;;;;;4995936;28;20054;-64
2022/12/21 07:46:05;;;;;;;8.52;2.78;;;;;;;;;;4988667;28;20050;-64
2022/12/21 07:48:31;;;;;;;9.68;2.03;;;;;;;;;;5001562;28;20046;-64
2022/12/21 07:50:58;;;;;;;2.75;1.45;;;;;;;;;;5003140;28;20041;-62
2022/12/21 07:53:24;;;;;;;6.93;1.95;;;;;;;;;;5004076;28;20394;-62
2022/12/21 07:55:50;;;;;;;6.07;1.77;;;;;;;;;;5006819;28;21495;-62
2022/12/21 07:58:16;;;;;;;9.93;2.13;;;;;;;;;;5010488;28;20692;-62
2022/12/21 08:00:42;;;;;;;8.90;1.75;;;;;;;;;;5000317;28;20042;-63
2022/12/21 08:03:08;;;;;;;5.60;1.67;;;;;;;;;;4997793;28;20306;-62
2022/12/21 08:05:34;;;;;;;7.13;1.75;;;;;;;;;;4997267;28;20573;-67
2022/12/21 08:08:02;;;;;;;2.63;1.40;;;;;;;;;;5001720;28;20073;-62
2022/12/21 08:10:29;;;;;;;5.75;1.45;;;;;;;;;;4988352;28;20658;-61
2022/12/21 08:12:55;;;;;;;3.22;1.60;;;;;;;;;;4994894;28;20064;-62
2022/12/21 08:15:21;;;;;;;7.30;2.00;;;;;;;;;;4994525;28;20143;-65
2022/12/21 08:17:48;;;;;;;7.57;2.20;;;;;;;;;;4995528;28;20061;-65
2022/12/21 08:20:14;;;;;;;5.65;2.40;;;;;;;;;;4996354;28;20049;-63
2022/12/21 08:22:40;;;;;;;4.15;1.85;;;;;;;;;;4995032;28;20046;-63
2022/12/21 08:25:08;;;;;;;6.18;1.52;;;;;;;;;;4994465;28;20089;-64
2022/12/21 08:27:34;;;;;;;6.75;1.92;;;;;;;;;;4996476;28;20049;-64
2022/12/21 08:30:00;;;;;;;6.32;1.80;;;;;;;;;;4991760;28;20054;-65
2022/12/21 08:32:26;;;;;;;5.13;1.90;;;;;;;;;;4995741;28;20077;-62
2022/12/21 08:34:52;;;;;;;3.22;1.60;;;;;;;;;;5003333;28;20049;-62
2022/12/21 08:37:19;;;;;;;4.60;1.80;;;;;;;;;;5002479;28;20060;-65
2022/12/21 08:39:45;;;;;;;6.57;1.38;;;;;;;;;;4995556;28;20101;-63
2022/12/21 08:42:12;;;;;;;3.30;1.30;;;;;;;;;;4995714;28;20054;-61
2022/12/21 08:44:38;;;;;;;4.03;1.70;;;;;;;;;;4996577;28;20065;-64
2022/12/21 08:47:06;;;;;;;3.67;1.58;;;;;;;;;;4994000;28;20380;-66
2022/12/21 08:49:32;;;;;;;3.50;1.63;;;;;;;;;;4998634;28;20410;-63
2022/12/21 08:51:58;;;;;;;6.60;1.67;;;;;;;;;;4996323;28;20065;-63
2022/12/21 08:54:25;;;;;;;5.10;1.77;;;;;;;;;;4999137;28;20152;-64
2022/12/21 08:56:51;;;;;;;3.45;1.60;;;;;;;;;;5002024;28;20656;-62
2022/12/21 08:59:17;;;;;;;4.45;1.50;;;;;;;;;;4998070;28;20062;-64
2022/12/21 09:01:43;;;;;;;6.53;1.30;;;;;;;;;;4998550;28;20080;-62
2022/12/21 09:04:09;;;;;;;4.43;1.20;;;;;;;;;;5000142;28;20097;-64
2022/12/21 09:06:34;;;;;;;3.65;1.13;;;;;;;;;;4996283;28;20042;-63
2022/12/21 09:09:00;;;;;;;4.28;1.17;;;;;;;;;;4997691;28;20053;-62
2022/12/21 09:11:27;;;;;;;5.78;1.27;;;;;;;;;;4998624;28;20065;-63
2022/12/21 09:13:53;;;;;;;5.50;1.58;;;;;;;;;;5001092;28;20056;-62
2022/12/21 09:16:22;;;;;;;8.18;1.30;;;;;;;;;;5005394;28;20140;-62
2022/12/21 09:18:50;;;;;;;3.33;1.35;;;;;;;;;;4998442;28;20159;-62
2022/12/21 09:21:17;;;;;;;6.05;1.30;;;;;;;;;;5001570;28;20045;-66
2022/12/21 09:23:44;;;;;;;4.10;1.38;;;;;;;;;;4998744;28;20046;-66
2022/12/21 09:26:10;;;;;;;5.68;1.70;;;;;;;;;;4995471;28;20384;-63
2022/12/21 09:28:37;;;;;;;3.22;1.52;;;;;;;;;;4996506;28;20046;-65
2022/12/21 09:31:11;;;;;;;6.32;1.88;;;;;;;;;;4999960;28;20058;-64
2022/12/21 09:33:38;;;;;;;3.95;1.63;;;;;;;;;;4976141;28;20963;-63
2022/12/21 09:36:05;;;;;;;5.03;1.65;;;;;;;;;;5001281;28;20060;-66
2022/12/21 09:38:31;;;;;;;2.78;1.30;;;;;;;;;;4996462;28;20050;-65
2022/12/21 09:41:21;;;;;;;5.07;1.52;;;;;;;;;;4999898;28;20042;-65
2022/12/21 09:44:03;;;;;;;5.65;1.50;;;;;;;;;;4997042;28;20112;-63
2022/12/21 09:46:29;;;;;;;5.10;1.50;;;;;;;;;;4996800;28;20495;-67
2022/12/21 09:49:00;;;;;;;2.85;1.40;;;;;;;;;;4999816;28;20045;-62
2022/12/21 09:51:28;;;;;;;4.28;1.50;;;;;;;;;;4981005;28;20048;-64
2022/12/21 09:54:29;;;;;;;4.25;2.13;;;;;;;;;;4995141;28;20053;-62
2022/12/21 09:56:56;;;;;;;6.00;1.90;;;;;;;;;;4977247;28;20435;-62
2022/12/21 09:59:22;;;;;;;6.10;1.55;;;;;;;;;;4990849;28;20188;-62
2022/12/21 10:02:02;;;;;;;6.57;1.48;;;;;;;;;;4997197;28;20045;-61
2022/12/21 10:04:54;;;;;;;6.75;2.20;;;;;;;;;;4989389;28;20056;-61
2022/12/21 10:07:39;;;;;;;5.55;1.92;;;;;;;;;;4987828;28;20058;-64
2022/12/21 10:10:22;;;;;;;4.18;1.33;;;;;;;;;;5000176;28;20513;-63
2022/12/21 10:12:55;;;;;;;6.45;1.83;;;;;;;;;;4997577;28;20512;-65
2022/12/21 10:15:34;;;;;;;5.80;1.52;;;;;;;;;;4997240;28;20886;-63
2022/12/21 10:18:21;;;;;;;4.55;1.45;;;;;;;;;;4989061;28;20046;-63
2022/12/21 10:20:56;;;;;;;8.18;1.80;;;;;;;;;;4991528;28;20049;-66
2022/12/21 10:23:26;;;;;;;4.53;1.50;;;;;;;;;;4988325;28;20049;-62
2022/12/21 10:25:58;;;;;;;3.80;1.35;;;;;;;;;;4996133;28;20133;-65
2022/12/21 10:28:43;;;;;;;6.55;1.55;;;;;;;;;;4996026;28;20062;-63
2022/12/21 10:31:15;;;;;;;14.18;1.50;;;;;;;;;;4989805;28;20104;-62
2022/12/21 10:33:43;;;;;;;5.05;1.30;;;;;;;;;;4994005;28;20421;-63
2022/12/21 10:36:22;;;;;;;6.72;1.35;;;;;;;;;;4991877;28;20053;-64
2022/12/21 10:38:48;;;;;;;6.50;1.40;;;;;;;;;;4998426;28;20113;-65
2022/12/21 10:41:22;;;;;;;6.60;1.17;;;;;;;;;;4996298;28;20042;-62
2022/12/21 10:43:49;;;;;;;;;;;;;;;;;;4991370;28;20177;-62
2022/12/21 10:46:17;;;;;;;9.90;1.08;;;;;;;;;;4994987;28;19950;-61
2022/12/21 10:48:46;;;;;;;5.22;1.00;;;;;;;;;;4997662;28;20046;-63
2022/12/21 10:51:15;;;;;;;2.95;1.00;;;;;;;;;;5000067;28;20072;-61
2022/12/21 10:53:57;;;;;;;2.97;1.20;;;;;;;;;;4990295;28;20161;-61
2022/12/21 10:56:25;;;;;;;4.25;0.95;;;;;;;;;;4993149;28;20744;-65
2022/12/21 10:58:53;;;;;;;9.07;1.00;;;;;;;;;;4997968;28;20062;-65
2022/12/21 11:01:28;;;;;;;8.07;1.20;;;;;;;;;;4995018;28;20125;-67
2022/12/21 11:04:09;;;;;;;3.00;1.20;;;;;;;;;;4995589;28;20100;-61
2022/12/21 11:06:35;;;;;;;3.88;0.95;;;;;;;;;;4998860;28;20109;-64
2022/12/21 11:09:01;;;;;;;3.38;0.93;;;;;;;;;;4973434;28;20050;-63
2022/12/21 11:11:30;;;;;;;5.57;1.55;;;;;;;;;;4992184;28;20500;-63
2022/12/21 11:13:59;;;;;;;3.35;0.85;;;;;;;;;;4991060;28;20425;-60
2022/12/21 11:16:28;;;;;;;1.83;0.90;;;;;;;;;;4995136;28;20410;-63
2022/12/21 11:18:58;;;;;;;3.42;1.00;;;;;;;;;;4999556;28;20050;-67
2022/12/21 11:21:45;;;;;;;2.22;1.30;;;;;;;;;;4979675;28;20127;-62
2022/12/21 11:24:16;;;;;;;4.25;1.30;;;;;;;;;;5000915;28;20061;-62
2022/12/21 11:26:52;;;;;;;5.68;1.30;;;;;;;;;;4995514;28;20340;-62
2022/12/21 11:29:23;;;;;;;6.70;1.50;;;;;;;;;;4999171;28;20508;-61
2022/12/21 11:31:51;;;;;;;2.58;1.30;;;;;;;;;;4995090;28;20466;-60
2022/12/21 11:34:27;;;;;;;7.38;1.20;;;;;;;;;;4998482;28;20057;-60
2022/12/21 11:37:00;;;;;;;2.97;1.20;;;;;;;;;;4994067;28;20058;-63
2022/12/21 11:39:26;;;;;;;3.30;0.93;;;;;;;;;;5001048;28;20050;-65
2022/12/21 11:41:53;;;;;;;3.67;0.90;;;;;;;;;;4988110;28;20115;-64
2022/12/21 11:44:28;;;;;;;5.25;1.70;;;;;;;;;;4996105;28;20081;-61
2022/12/21 11:47:13;;;;;;;4.28;1.10;;;;;;;;;;4973581;28;20057;-63
2022/12/21 11:50:11;;;;;;;5.07;1.35;;;;;;;;;;4994791;28;20417;-64
2022/12/21 11:52:43;;;;;;;2.75;1.15;;;;;;;;;;4993200;28;20065;-61
2022/12/21 11:55:35;;;;;;;6.63;1.20;;;;;;;;;;4993505;28;20045;-61
2022/12/21 11:58:13;;;;;;;4.75;1.40;;;;;;;;;;4992101;28;20046;-62
2022/12/21 12:00:54;;;;;;;6.22;1.35;;;;;;;;;;4990269;28;20056;-64
2022/12/21 12:03:33;;;;;;;5.40;1.20;;;;;;;;;;4992438;28;20578;-63
2022/12/21 12:06:28;;;;;;;8.07;1.80;;;;;;;;;;4994847;28;20100;-64
2022/12/21 12:09:11;;;;;;;7.30;1.35;;;;;;;;;;4992255;28;20042;-64
2022/12/21 12:11:52;;;;;;;1.77;0.82;;;;;;;;;;4993002;28;20099;-60
2022/12/21 12:14:53;;;;;;;2.42;0.93;;;;;;;;;;4977870;28;21323;-64
2022/12/21 12:17:31;;;;;;;3.83;1.02;;;;;;;;;;4984858;28;20137;-70
2022/12/21 12:20:06;;;;;;;8.15;1.38;;;;;;;;;;4991242;28;20557;-60
2022/12/21 12:22:59;;;;;;;5.97;1.00;;;;;;;;;;4997465;28;20061;-62
2022/12/21 12:25:40;;;;;;;4.38;1.27;;;;;;;;;;4994918;28;20054;-63
2022/12/21 12:28:28;;;;;;;4.75;1.35;;;;;;;;;;4999004;28;20537;-64
2022/12/21 12:31:03;;;;;;;2.95;1.10;;;;;;;;;;4969638;28;20050;-63
2022/12/21 12:33:44;;;;;;;5.20;1.38;;;;;;;;;;5000937;28;20054;-66
2022/12/21 12:36:10;;;;;;;4.20;1.23;;;;;;;;;;4998132;28;20054;-63
2022/12/21 12:38:55;;;;;;;7.32;1.35;;;;;;;;;;5000648;28;20583;-63
2022/12/21 12:41:31;;;;;;;6.88;1.23;;;;;;;;;;4993687;28;20046;-64
2022/12/21 12:44:03;;;;;;;10.48;1.17;;;;;;;;;;5001706;28;20050;-62
2022/12/21 12:46:41;;;;;;;6.88;1.70;;;;;;;;;;4989707;28;20084;-68
2022/12/21 12:49:28;;;;;;;8.80;1.50;;;;;;;;;;4989788;28;20050;-65
2022/12/21 12:52:14;;;;;;;2.60;1.00;;;;;;;;;;5006407;28;20558;-65
2022/12/21 12:55:08;;;;;;;2.92;1.30;;;;;;;;;;5006624;28;20420;-62
2022/12/21 12:57:41;;;;;;;4.27;1.20;;;;;;;;;;5004380;28;20045;-61
2022/12/21 13:00:10;;;;;;;2.63;0.88;;;;;;;;;;4980483;28;20333;-63
2022/12/21 13:03:02;;;;;;;2.97;1.10;;;;;;;;;;4980688;28;20041;-67
2022/12/21 13:05:49;;;;;;;5.80;1.27;;;;;;;;;;4990114;28;20042;-65
2022/12/21 13:08:21;;;;;;;4.53;1.00;;;;;;;;;;5004628;28;20050;-63
2022/12/21 13:10:59;;;;;;;2.20;1.05;;;;;;;;;;4989680;28;20046;-62
2022/12/21 13:13:41;;;;;;;6.00;1.23;;;;;;;;;;5002132;28;20091;-62
2022/12/21 13:16:12;;;;;;;7.95;1.08;;;;;;;;;;4978037;28;20470;-62
2022/12/21 13:18:44;;;;;;;7.53;1.05;;;;;;;;;;4978121;28;20054;-64
2022/12/21 13:21:11;;;;;;;8.55;1.30;;;;;;;;;;4973367;28;20385;-63
2022/12/21 13:23:45;;;;;;;9.32;1.15;;;;;;;;;;4973902;28;20065;-64
2022/12/21 13:26:15;;;;;;;3.40;1.15;;;;;;;;;;4972252;28;20657;-63
2022/12/21 13:28:57;;;;;;;3.95;1.15;;;;;;;;;;4978461;28;20046;-64
2022/12/21 13:31:29;;;;;;;3.03;1.25;;;;;;;;;;4983029;28;20045;-63
2022/12/21 13:34:02;;;;;;;6.47;1.00;;;;;;;;;;4971108;28;20151;-64
2022/12/21 13:36:35;;;;;;;4.65;1.08;;;;;;;;;;4983974;28;20397;-63
2022/12/21 13:39:28;;;;;;;2.20;1.17;;;;;;;;;;5003016;28;20509;-63
2022/12/21 13:42:03;;;;;;;4.60;0.82;;;;;;;;;;5006477;28;20042;-65
2022/12/21 13:44:38;;;;;;;3.35;1.27;;;;;;;;;;4997715;28;20049;-64
2022/12/21 13:47:07;;;;;;;3.63;1.00;;;;;;;;;;5007270;28;20053;-62
2022/12/21 13:49:36;;;;;;;2.60;0.98;;;;;;;;;;4993809;28;20046;-60
2022/12/21 13:52:17;;;;;;;3.08;1.20;;;;;;;;;;5001418;28;20057;-62
2022/12/21 13:54:58;;;;;;;3.67;1.40;;;;;;;;;;5002105;28;20053;-63
2022/12/21 13:57:29;;;;;;;3.70;1.23;;;;;;;;;;4988729;28;20095;-65
2022/12/21 14:00:05;;;;;;;4.90;1.50;;;;;;;;;;5001098;28;20060;-64
2022/12/21 14:03:00;;;;;;;4.30;1.10;;;;;;;;;;4980363;28;20100;-64
2022/12/21 14:05:28;;;;;;;2.30;1.20;;;;;;;;;;4999622;28;20054;-64
2022/12/21 14:08:10;;;;;;;9.02;1.40;;;;;;;;;;4976293;28;20089;-63
2022/12/21 14:11:01;;;;;;;2.00;1.00;;;;;;;;;;4981324;28;20041;-64
2022/12/21 14:13:45;;;;;;;2.80;1.05;;;;;;;;;;5002643;28;20049;-63
2022/12/21 14:16:22;;;;;;;2.33;1.00;;;;;;;;;;5003427;28;20065;-60
2022/12/21 14:18:56;;;;;;;2.90;1.40;;;;;;;;;;4992838;28;20045;-62
2022/12/21 14:21:25;;;;;;;4.57;1.58;;;;;;;;;;5004247;28;20474;-63
2022/12/21 14:23:58;;;;;;;3.78;1.40;;;;;;;;;;5003083;28;20054;-67
2022/12/21 14:26:36;;;;;;;3.13;1.10;;;;;;;;;;5006311;28;20046;-65
2022/12/21 14:29:33;;;;;;;11.68;1.23;;;;;;;;;;5008351;28;20057;-63
2022/12/21 14:32:10;;;;;;;9.93;1.50;;;;;;;;;;4990874;28;20046;-64
2022/12/21 14:34:47;;;;;;;3.28;1.40;;;;;;;;;;4986670;28;20610;-61
2022/12/21 14:37:13;;;;;;;4.28;1.50;;;;;;;;;;4982618;28;20046;-68
2022/12/21 14:39:46;;;;;;;5.95;1.40;;;;;;;;;;4970145;28;20077;-62
2022/12/21 14:42:40;;;;;;;5.30;1.05;;;;;;;;;;4976051;28;20049;-62
2022/12/21 14:45:09;;;;;;;2.15;1.15;;;;;;;;;;4983866;28;20049;-61
2022/12/21 14:47:40;;;;;;;4.85;0.88;;;;;;;;;;4980822;28;20047;-62
2022/12/21 14:50:37;;;;;;;5.70;1.00;;;;;;;;;;4981583;28;20061;-63
2022/12/21 14:53:29;;;;;;;2.55;0.93;;;;;;;;;;4978999;28;20054;-61
2022/12/21 14:56:19;;;;;;;2.03;0.70;;;;;;;;;;4974267;28;20046;-62
2022/12/21 14:58:56;;;;;;;4.10;0.80;;;;;;;;;;4966755;28;20065;-63
2022/12/21 15:01:32;;;;;;;1.73;0.90;;;;;;;;;;4979373;28;20136;-63
2022/12/21 15:04:13;;;;;;;2.80;0.80;;;;;;;;;;4977271;28;20039;-62
2022/12/21 15:06:42;;;;;;;4.13;1.08;;;;;;;;;;4970846;28;20711;-64
2022/12/21 15:09:22;;;;;;;3.47;1.10;;;;;;;;;;4970456;28;20038;-63
2022/12/21 15:11:53;;;;;;;5.35;1.73;;;;;;;;;;4970193;28;20103;-61
2022/12/21 15:14:35;;;;;;;3.25;1.00;;;;;;;;;;4966725;28;20042;-61
2022/12/21 15:17:05;;;;;;;5.53;1.02;;;;;;;;;;4976485;28;20121;-63
2022/12/21 15:19:33;;;;;;;2.45;0.70;;;;;;;;;;4980681;28;20057;-61
2022/12/21 15:22:36;;;;;;;5.97;1.02;;;;;;;;;;4979996;28;20165;-63